createdAt,value
2022-08-11T00:04:42.118Z,20.17
2022-08-11T00:15:04.745Z,19.95
2022-08-11T00:25:26.470Z,19.76
2022-08-11T00:35:57.483Z,19.76
2022-08-11T00:46:25.528Z,19.89
2022-08-11T00:57:37.256Z,19.83
2022-08-11T01:08:36.939Z,19.81
2022-08-11T01:20:38.502Z,19.60
2022-08-11T01:30:39.400Z,19.57
2022-08-11T01:41:54.376Z,19.45
2022-08-11T01:52:31.031Z,19.46
2022-08-11T02:03:15.651Z,19.29
2022-08-11T02:13:42.265Z,19.25
2022-08-11T02:24:17.332Z,19.01
2022-08-11T02:35:00.142Z,18.95
2022-08-11T02:45:34.572Z,18.94
2022-08-11T02:56:22.910Z,18.78
2022-08-11T03:07:01.966Z,18.72
2022-08-11T03:18:12.550Z,18.73
2022-08-11T03:28:51.882Z,18.56
2022-08-11T03:39:31.690Z,18.53
2022-08-11T03:50:24.751Z,18.45
2022-08-11T04:01:29.576Z,18.39
2022-08-11T04:12:13.307Z,18.44
2022-08-11T04:22:54.321Z,18.40
2022-08-11T04:33:35.237Z,18.24
2022-08-11T04:44:27.588Z,18.24
2022-08-11T04:55:27.191Z,18.27
2022-08-11T05:06:25.247Z,18.27
2022-08-11T05:17:12.036Z,18.58
2022-08-11T05:27:57.372Z,18.65
2022-08-11T05:38:41.511Z,18.73
2022-08-11T05:49:22.053Z,18.93
2022-08-11T05:59:46.061Z,19.16
2022-08-11T06:10:09.806Z,19.35
2022-08-11T06:20:37.380Z,19.65
2022-08-11T06:31:00.301Z,20.02
2022-08-11T06:41:31.881Z,20.32
2022-08-11T06:51:56.749Z,21.11
2022-08-11T07:02:34.030Z,21.09
2022-08-11T07:13:44.314Z,21.57
2022-08-11T07:24:19.850Z,21.67
2022-08-11T07:35:14.284Z,22.07
2022-08-11T07:45:54.395Z,22.26
2022-08-11T07:56:19.653Z,22.49
2022-08-11T08:07:12.753Z,22.66
2022-08-11T08:18:20.996Z,23.06
2022-08-11T08:28:39.763Z,23.45
2022-08-11T08:39:01.750Z,23.77
2022-08-11T08:49:31.369Z,24.19
2022-08-11T08:59:53.241Z,24.54
2022-08-11T09:10:19.476Z,24.74
2022-08-11T09:20:41.369Z,24.98
2022-08-11T09:31:06.319Z,25.35
2022-08-11T09:41:28.017Z,25.97
2022-08-11T09:52:10.956Z,26.13
2022-08-11T10:02:33.071Z,26.41
2022-08-11T10:13:05.538Z,26.70
2022-08-11T10:24:19.497Z,27.03
2022-08-11T10:35:02.181Z,26.82
2022-08-11T10:45:43.454Z,27.25
2022-08-11T10:56:24.611Z,27.65
2022-08-11T11:07:13.788Z,27.93
2022-08-11T11:18:07.539Z,28.41
2022-08-11T11:28:43.580Z,28.66
2022-08-11T11:39:07.088Z,29.16
2022-08-11T11:49:32.276Z,29.15
2022-08-11T12:00:12.934Z,29.34
2022-08-11T12:10:34.825Z,29.33
2022-08-11T12:20:56.591Z,29.04
2022-08-11T12:31:22.174Z,28.76
2022-08-11T12:42:03.088Z,28.44
2022-08-11T12:52:29.797Z,28.53
2022-08-11T13:03:11.045Z,28.37
2022-08-11T13:13:53.698Z,28.28
2022-08-11T13:24:15.895Z,28.50
2022-08-11T13:34:42.295Z,28.55
2022-08-11T13:45:04.623Z,28.33
2022-08-11T13:55:51.022Z,28.31
2022-08-11T14:06:10.147Z,28.46
2022-08-11T14:16:36.974Z,28.63
2022-08-11T14:26:59.926Z,28.63
2022-08-11T14:37:23.806Z,28.66
2022-08-11T14:47:50.557Z,28.58
2022-08-11T14:58:17.033Z,28.80
2022-08-11T15:08:54.856Z,28.47
2022-08-11T15:19:21.144Z,28.27
2022-08-11T15:30:02.762Z,28.64
2022-08-11T15:40:47.806Z,28.61
2022-08-11T15:51:13.191Z,28.51
2022-08-11T16:01:56.553Z,28.53
2022-08-11T16:12:25.695Z,28.60
2022-08-11T16:22:55.104Z,28.56
2022-08-11T16:33:48.934Z,28.84
2022-08-11T16:44:32.755Z,29.11
2022-08-11T16:54:59.836Z,29.24
2022-08-11T17:05:54.457Z,28.58
2022-08-11T17:16:23.968Z,28.25
2022-08-11T17:26:58.652Z,27.94
2022-08-11T17:37:21.701Z,28.17
2022-08-11T17:48:03.028Z,27.86
2022-08-11T17:58:44.124Z,27.84
2022-08-11T18:09:28.246Z,27.61
2022-08-11T18:20:08.518Z,27.24
2022-08-11T18:30:53.911Z,26.97
2022-08-11T18:41:47.743Z,26.70
2022-08-11T18:52:28.342Z,26.57
2022-08-11T19:03:09.514Z,26.22
2022-08-11T19:13:51.796Z,26.10
2022-08-11T19:24:33.455Z,25.97
2022-08-11T19:35:18.124Z,25.81
2022-08-11T19:46:00.050Z,25.64
2022-08-11T19:56:40.822Z,25.49
2022-08-11T20:07:21.620Z,25.22
2022-08-11T20:18:02.365Z,25.22
2022-08-11T20:28:44.800Z,24.94
2022-08-11T20:39:26.250Z,24.81
2022-08-11T20:50:07.943Z,24.52
2022-08-11T21:01:00.169Z,24.40
2022-08-11T21:11:41.830Z,24.30
2022-08-11T21:22:28.069Z,23.90
2022-08-11T21:33:10.511Z,23.94
2022-08-11T21:43:52.708Z,23.69
2022-08-11T21:54:34.587Z,23.38
2022-08-11T22:05:15.290Z,23.25
2022-08-11T22:15:56.414Z,23.11
2022-08-11T22:26:39.635Z,23.02
2022-08-11T22:37:27.421Z,22.99
2022-08-11T22:48:09.268Z,22.74
2022-08-11T22:58:50.379Z,22.48
2022-08-11T23:09:31.025Z,22.46
2022-08-11T23:20:35.726Z,22.33
2022-08-11T23:31:15.768Z,22.16
2022-08-11T23:41:56.504Z,22.12
2022-08-11T23:52:37.230Z,22.01
